sensor_id;sensor_type;location;lat;lon;timestamp;P1;durP1;ratioP1;P2;durP2;ratioP2
7444;SDS011;3764;48.126;11.594;2022-09-25T00:00:35;15.85;;;12.30;;
7444;SDS011;3764;48.126;11.594;2022-09-25T00:03:03;12.73;;;11.27;;
7444;SDS011;3764;48.126;11.594;2022-09-25T00:05:30;11.70;;;10.50;;
7444;SDS011;3764;48.126;11.594;2022-09-25T00:07:57;13.30;;;11.60;;
7444;SDS011;3764;48.126;11.594;2022-09-25T00:10:24;13.50;;;12.10;;
7444;SDS011;3764;48.126;11.594;2022-09-25T00:12:53;12.80;;;11.35;;
7444;SDS011;3764;48.126;11.594;2022-09-25T00:15:20;15.07;;;11.85;;
7444;SDS011;3764;48.126;11.594;2022-09-25T00:17:49;12.75;;;11.30;;
7444;SDS011;3764;48.126;11.594;2022-09-25T00:20:16;13.65;;;12.23;;
7444;SDS011;3764;48.126;11.594;2022-09-25T00:22:44;13.07;;;11.02;;
7444;SDS011;3764;48.126;11.594;2022-09-25T00:25:12;12.07;;;10.75;;
7444;SDS011;3764;48.126;11.594;2022-09-25T00:27:40;13.10;;;10.57;;
7444;SDS011;3764;48.126;11.594;2022-09-25T00:30:09;13.48;;;11.43;;
7444;SDS011;3764;48.126;11.594;2022-09-25T00:32:38;13.48;;;10.73;;
7444;SDS011;3764;48.126;11.594;2022-09-25T00:35:09;11.80;;;10.57;;
7444;SDS011;3764;48.126;11.594;2022-09-25T00:37:36;11.20;;;10.02;;
7444;SDS011;3764;48.126;11.594;2022-09-25T00:40:04;11.43;;;10.27;;
7444;SDS011;3764;48.126;11.594;2022-09-25T00:42:32;11.27;;;9.43;;
7444;SDS011;3764;48.126;11.594;2022-09-25T00:45:00;10.95;;;9.80;;
7444;SDS011;3764;48.126;11.594;2022-09-25T00:47:31;10.75;;;9.23;;
7444;SDS011;3764;48.126;11.594;2022-09-25T00:50:12;10.52;;;9.38;;
7444;SDS011;3764;48.126;11.594;2022-09-25T00:52:44;10.85;;;9.75;;
7444;SDS011;3764;48.126;11.594;2022-09-25T00:55:12;10.63;;;9.25;;
7444;SDS011;3764;48.126;11.594;2022-09-25T00:57:40;11.20;;;9.23;;
7444;SDS011;3764;48.126;11.594;2022-09-25T01:00:11;11.80;;;10.32;;
7444;SDS011;3764;48.126;11.594;2022-09-25T01:02:40;12.07;;;10.82;;
7444;SDS011;3764;48.126;11.594;2022-09-25T01:05:10;13.63;;;10.85;;
7444;SDS011;3764;48.126;11.594;2022-09-25T01:07:40;11.55;;;10.45;;
7444;SDS011;3764;48.126;11.594;2022-09-25T01:10:10;13.60;;;11.35;;
7444;SDS011;3764;48.126;11.594;2022-09-25T01:12:41;11.73;;;9.73;;
7444;SDS011;3764;48.126;11.594;2022-09-25T01:15:11;17.27;;;10.43;;
7444;SDS011;3764;48.126;11.594;2022-09-25T01:17:41;12.60;;;11.30;;
7444;SDS011;3764;48.126;11.594;2022-09-25T01:20:20;12.75;;;10.90;;
7444;SDS011;3764;48.126;11.594;2022-09-25T01:23:04;11.02;;;9.93;;
7444;SDS011;3764;48.126;11.594;2022-09-25T01:25:46;10.77;;;9.73;;
7444;SDS011;3764;48.126;11.594;2022-09-25T01:28:38;11.55;;;9.55;;
7444;SDS011;3764;48.126;11.594;2022-09-25T01:31:14;10.07;;;9.00;;
7444;SDS011;3764;48.126;11.594;2022-09-25T01:33:47;10.10;;;8.73;;
7444;SDS011;3764;48.126;11.594;2022-09-25T01:36:23;11.32;;;9.55;;
7444;SDS011;3764;48.126;11.594;2022-09-25T01:38:54;9.77;;;8.77;;
7444;SDS011;3764;48.126;11.594;2022-09-25T01:41:29;9.85;;;7.95;;
7444;SDS011;3764;48.126;11.594;2022-09-25T01:44:05;9.48;;;8.50;;
7444;SDS011;3764;48.126;11.594;2022-09-25T01:46:37;10.75;;;8.70;;
7444;SDS011;3764;48.126;11.594;2022-09-25T01:49:11;9.32;;;8.40;;
7444;SDS011;3764;48.126;11.594;2022-09-25T01:51:44;8.40;;;7.60;;
7444;SDS011;3764;48.126;11.594;2022-09-25T01:54:15;10.13;;;8.70;;
7444;SDS011;3764;48.126;11.594;2022-09-25T01:56:49;12.45;;;8.23;;
7444;SDS011;3764;48.126;11.594;2022-09-25T01:59:22;10.25;;;8.07;;
7444;SDS011;3764;48.126;11.594;2022-09-25T02:01:54;8.63;;;7.72;;
7444;SDS011;3764;48.126;11.594;2022-09-25T02:04:25;9.18;;;8.32;;
7444;SDS011;3764;48.126;11.594;2022-09-25T02:06:56;12.68;;;8.13;;
7444;SDS011;3764;48.126;11.594;2022-09-25T02:09:28;10.20;;;8.55;;
7444;SDS011;3764;48.126;11.594;2022-09-25T02:12:01;8.57;;;7.68;;
7444;SDS011;3764;48.126;11.594;2022-09-25T02:14:37;9.27;;;7.50;;
7444;SDS011;3764;48.126;11.594;2022-09-25T02:17:11;9.35;;;8.45;;
7444;SDS011;3764;48.126;11.594;2022-09-25T02:20:04;9.25;;;7.65;;
7444;SDS011;3764;48.126;11.594;2022-09-25T02:22:49;9.23;;;8.13;;
7444;SDS011;3764;48.126;11.594;2022-09-25T02:25:19;11.45;;;9.43;;
7444;SDS011;3764;48.126;11.594;2022-09-25T02:27:52;7.97;;;7.18;;
7444;SDS011;3764;48.126;11.594;2022-09-25T02:30:20;8.38;;;7.53;;
7444;SDS011;3764;48.126;11.594;2022-09-25T02:32:48;8.63;;;7.75;;
7444;SDS011;3764;48.126;11.594;2022-09-25T02:35:15;9.70;;;7.75;;
7444;SDS011;3764;48.126;11.594;2022-09-25T02:37:42;7.88;;;7.07;;
7444;SDS011;3764;48.126;11.594;2022-09-25T02:40:09;6.90;;;6.25;;
7444;SDS011;3764;48.126;11.594;2022-09-25T02:42:37;8.10;;;7.35;;
7444;SDS011;3764;48.126;11.594;2022-09-25T02:45:11;7.93;;;7.13;;
7444;SDS011;3764;48.126;11.594;2022-09-25T02:48:01;8.20;;;6.78;;
7444;SDS011;3764;48.126;11.594;2022-09-25T02:50:35;7.18;;;6.50;;
7444;SDS011;3764;48.126;11.594;2022-09-25T02:53:11;8.13;;;6.90;;
7444;SDS011;3764;48.126;11.594;2022-09-25T02:55:44;7.55;;;6.15;;
7444;SDS011;3764;48.126;11.594;2022-09-25T02:58:16;6.82;;;6.20;;
7444;SDS011;3764;48.126;11.594;2022-09-25T03:00:51;7.80;;;7.05;;
7444;SDS011;3764;48.126;11.594;2022-09-25T03:03:20;8.30;;;7.45;;
7444;SDS011;3764;48.126;11.594;2022-09-25T03:05:50;7.35;;;6.38;;
7444;SDS011;3764;48.126;11.594;2022-09-25T03:08:21;7.43;;;6.65;;
7444;SDS011;3764;48.126;11.594;2022-09-25T03:11:06;7.97;;;6.30;;
7444;SDS011;3764;48.126;11.594;2022-09-25T03:13:36;6.75;;;6.15;;
7444;SDS011;3764;48.126;11.594;2022-09-25T03:16:05;7.28;;;6.57;;
7444;SDS011;3764;48.126;11.594;2022-09-25T03:18:36;7.25;;;6.53;;
7444;SDS011;3764;48.126;11.594;2022-09-25T03:21:03;7.10;;;6.40;;
7444;SDS011;3764;48.126;11.594;2022-09-25T03:23:31;8.38;;;6.80;;
7444;SDS011;3764;48.126;11.594;2022-09-25T03:25:58;7.47;;;6.03;;
7444;SDS011;3764;48.126;11.594;2022-09-25T03:28:25;13.75;;;6.40;;
7444;SDS011;3764;48.126;11.594;2022-09-25T03:30:56;9.20;;;7.05;;
7444;SDS011;3764;48.126;11.594;2022-09-25T03:33:26;7.60;;;6.50;;
7444;SDS011;3764;48.126;11.594;2022-09-25T03:36:02;7.35;;;6.50;;
7444;SDS011;3764;48.126;11.594;2022-09-25T03:38:32;6.68;;;6.05;;
7444;SDS011;3764;48.126;11.594;2022-09-25T03:40:59;7.00;;;6.10;;
7444;SDS011;3764;48.126;11.594;2022-09-25T03:43:26;7.20;;;6.50;;
7444;SDS011;3764;48.126;11.594;2022-09-25T03:46:00;8.77;;;6.15;;
7444;SDS011;3764;48.126;11.594;2022-09-25T03:48:28;6.60;;;5.95;;
7444;SDS011;3764;48.126;11.594;2022-09-25T03:50:55;6.10;;;5.45;;
7444;SDS011;3764;48.126;11.594;2022-09-25T03:53:23;6.80;;;6.10;;
7444;SDS011;3764;48.126;11.594;2022-09-25T03:55:50;6.82;;;6.05;;
7444;SDS011;3764;48.126;11.594;2022-09-25T03:58:18;7.07;;;5.70;;
7444;SDS011;3764;48.126;11.594;2022-09-25T04:00:46;7.65;;;6.70;;
7444;SDS011;3764;48.126;11.594;2022-09-25T04:03:13;7.10;;;6.40;;
7444;SDS011;3764;48.126;11.594;2022-09-25T04:05:42;7.07;;;6.38;;
7444;SDS011;3764;48.126;11.594;2022-09-25T04:08:10;7.40;;;6.43;;
7444;SDS011;3764;48.126;11.594;2022-09-25T04:10:37;6.53;;;5.80;;
7444;SDS011;3764;48.126;11.594;2022-09-25T04:13:04;6.78;;;6.07;;
7444;SDS011;3764;48.126;11.594;2022-09-25T04:15:32;7.30;;;6.60;;
7444;SDS011;3764;48.126;11.594;2022-09-25T04:17:59;7.18;;;6.47;;
7444;SDS011;3764;48.126;11.594;2022-09-25T04:20:26;9.77;;;6.30;;
7444;SDS011;3764;48.126;11.594;2022-09-25T04:22:55;7.32;;;6.63;;
7444;SDS011;3764;48.126;11.594;2022-09-25T04:25:22;6.35;;;5.75;;
7444;SDS011;3764;48.126;11.594;2022-09-25T04:27:51;7.20;;;6.20;;
7444;SDS011;3764;48.126;11.594;2022-09-25T04:30:19;6.80;;;6.18;;
7444;SDS011;3764;48.126;11.594;2022-09-25T04:32:47;5.97;;;5.38;;
7444;SDS011;3764;48.126;11.594;2022-09-25T04:35:32;6.40;;;5.80;;
7444;SDS011;3764;48.126;11.594;2022-09-25T04:38:01;6.68;;;6.05;;
7444;SDS011;3764;48.126;11.594;2022-09-25T04:40:28;6.65;;;5.95;;
7444;SDS011;3764;48.126;11.594;2022-09-25T04:42:56;6.60;;;5.90;;
7444;SDS011;3764;48.126;11.594;2022-09-25T04:45:23;7.75;;;5.80;;
7444;SDS011;3764;48.126;11.594;2022-09-25T04:47:51;10.20;;;6.15;;
7444;SDS011;3764;48.126;11.594;2022-09-25T04:50:19;6.88;;;6.18;;
7444;SDS011;3764;48.126;11.594;2022-09-25T04:52:46;9.48;;;7.25;;
7444;SDS011;3764;48.126;11.594;2022-09-25T04:55:17;6.65;;;5.60;;
7444;SDS011;3764;48.126;11.594;2022-09-25T04:57:48;6.35;;;5.75;;
7444;SDS011;3764;48.126;11.594;2022-09-25T05:00:17;6.30;;;5.70;;
7444;SDS011;3764;48.126;11.594;2022-09-25T05:02:44;6.18;;;5.63;;
7444;SDS011;3764;48.126;11.594;2022-09-25T05:05:12;6.00;;;5.40;;
7444;SDS011;3764;48.126;11.594;2022-09-25T05:07:40;6.47;;;5.70;;
7444;SDS011;3764;48.126;11.594;2022-09-25T05:10:18;7.30;;;6.10;;
7444;SDS011;3764;48.126;11.594;2022-09-25T05:12:45;8.20;;;5.85;;
7444;SDS011;3764;48.126;11.594;2022-09-25T05:15:13;6.57;;;5.75;;
7444;SDS011;3764;48.126;11.594;2022-09-25T05:17:40;9.20;;;6.10;;
7444;SDS011;3764;48.126;11.594;2022-09-25T05:20:07;9.35;;;6.07;;
7444;SDS011;3764;48.126;11.594;2022-09-25T05:22:35;6.90;;;6.10;;
7444;SDS011;3764;48.126;11.594;2022-09-25T05:25:02;5.72;;;5.22;;
7444;SDS011;3764;48.126;11.594;2022-09-25T05:27:32;8.73;;;6.28;;
7444;SDS011;3764;48.126;11.594;2022-09-25T05:30:00;6.72;;;5.78;;
7444;SDS011;3764;48.126;11.594;2022-09-25T05:32:27;6.05;;;5.45;;
7444;SDS011;3764;48.126;11.594;2022-09-25T05:34:55;7.65;;;4.45;;
7444;SDS011;3764;48.126;11.594;2022-09-25T05:37:22;5.50;;;5.00;;
7444;SDS011;3764;48.126;11.594;2022-09-25T05:39:49;5.60;;;5.05;;
7444;SDS011;3764;48.126;11.594;2022-09-25T05:42:16;5.18;;;4.68;;
7444;SDS011;3764;48.126;11.594;2022-09-25T05:44:45;5.40;;;4.80;;
7444;SDS011;3764;48.126;11.594;2022-09-25T05:47:12;5.10;;;4.60;;
7444;SDS011;3764;48.126;11.594;2022-09-25T05:49:40;5.93;;;5.32;;
7444;SDS011;3764;48.126;11.594;2022-09-25T05:52:07;6.03;;;5.43;;
7444;SDS011;3764;48.126;11.594;2022-09-25T05:54:34;5.43;;;4.93;;
7444;SDS011;3764;48.126;11.594;2022-09-25T05:57:01;5.50;;;4.78;;
7444;SDS011;3764;48.126;11.594;2022-09-25T05:59:28;5.40;;;4.90;;
7444;SDS011;3764;48.126;11.594;2022-09-25T06:01:57;6.68;;;5.88;;
7444;SDS011;3764;48.126;11.594;2022-09-25T06:04:24;5.85;;;5.25;;
7444;SDS011;3764;48.126;11.594;2022-09-25T06:06:51;5.18;;;4.68;;
7444;SDS011;3764;48.126;11.594;2022-09-25T06:09:18;5.97;;;5.40;;
7444;SDS011;3764;48.126;11.594;2022-09-25T06:11:45;6.22;;;5.57;;
7444;SDS011;3764;48.126;11.594;2022-09-25T06:14:12;5.25;;;4.75;;
7444;SDS011;3764;48.126;11.594;2022-09-25T06:16:40;4.95;;;4.55;;
7444;SDS011;3764;48.126;11.594;2022-09-25T06:19:09;5.10;;;4.60;;
7444;SDS011;3764;48.126;11.594;2022-09-25T06:21:36;5.93;;;5.40;;
7444;SDS011;3764;48.126;11.594;2022-09-25T06:24:03;5.55;;;4.95;;
7444;SDS011;3764;48.126;11.594;2022-09-25T06:26:31;6.05;;;5.47;;
7444;SDS011;3764;48.126;11.594;2022-09-25T06:28:59;5.90;;;5.40;;
7444;SDS011;3764;48.126;11.594;2022-09-25T06:31:28;5.75;;;4.93;;
7444;SDS011;3764;48.126;11.594;2022-09-25T06:33:55;6.10;;;5.50;;
7444;SDS011;3764;48.126;11.594;2022-09-25T06:36:23;6.85;;;6.07;;
7444;SDS011;3764;48.126;11.594;2022-09-25T06:38:52;7.70;;;6.80;;
7444;SDS011;3764;48.126;11.594;2022-09-25T06:41:19;6.10;;;5.55;;
7444;SDS011;3764;48.126;11.594;2022-09-25T06:43:47;6.35;;;5.75;;
7444;SDS011;3764;48.126;11.594;2022-09-25T06:46:14;5.57;;;4.70;;
7444;SDS011;3764;48.126;11.594;2022-09-25T06:48:42;7.35;;;4.93;;
7444;SDS011;3764;48.126;11.594;2022-09-25T06:51:09;5.25;;;4.72;;
7444;SDS011;3764;48.126;11.594;2022-09-25T06:53:37;4.82;;;4.28;;
7444;SDS011;3764;48.126;11.594;2022-09-25T06:56:05;6.95;;;5.05;;
7444;SDS011;3764;48.126;11.594;2022-09-25T06:58:32;6.13;;;5.55;;
7444;SDS011;3764;48.126;11.594;2022-09-25T07:01:00;6.57;;;5.88;;
7444;SDS011;3764;48.126;11.594;2022-09-25T07:03:27;5.30;;;4.80;;
7444;SDS011;3764;48.126;11.594;2022-09-25T07:06:13;13.43;;;9.50;;
7444;SDS011;3764;48.126;11.594;2022-09-25T07:08:42;11.73;;;8.57;;
7444;SDS011;3764;48.126;11.594;2022-09-25T07:11:12;7.88;;;7.07;;
7444;SDS011;3764;48.126;11.594;2022-09-25T07:13:40;7.22;;;6.53;;
7444;SDS011;3764;48.126;11.594;2022-09-25T07:16:09;15.90;;;8.68;;
7444;SDS011;3764;48.126;11.594;2022-09-25T07:18:38;7.10;;;6.38;;
7444;SDS011;3764;48.126;11.594;2022-09-25T07:21:06;7.30;;;6.05;;
7444;SDS011;3764;48.126;11.594;2022-09-25T07:23:34;7.20;;;6.50;;
7444;SDS011;3764;48.126;11.594;2022-09-25T07:26:04;7.95;;;7.15;;
7444;SDS011;3764;48.126;11.594;2022-09-25T07:28:32;7.82;;;7.13;;
7444;SDS011;3764;48.126;11.594;2022-09-25T07:31:08;9.60;;;6.72;;
7444;SDS011;3764;48.126;11.594;2022-09-25T07:33:36;7.50;;;6.80;;
7444;SDS011;3764;48.126;11.594;2022-09-25T07:36:03;10.20;;;7.68;;
7444;SDS011;3764;48.126;11.594;2022-09-25T07:38:31;8.25;;;7.45;;
7444;SDS011;3764;48.126;11.594;2022-09-25T07:41:01;7.25;;;6.55;;
7444;SDS011;3764;48.126;11.594;2022-09-25T07:43:30;6.75;;;6.15;;
7444;SDS011;3764;48.126;11.594;2022-09-25T07:45:58;7.55;;;6.85;;
7444;SDS011;3764;48.126;11.594;2022-09-25T07:48:26;6.55;;;5.88;;
7444;SDS011;3764;48.126;11.594;2022-09-25T07:50:58;8.07;;;6.65;;
7444;SDS011;3764;48.126;11.594;2022-09-25T07:53:25;7.63;;;6.93;;
7444;SDS011;3764;48.126;11.594;2022-09-25T07:55:54;8.35;;;7.55;;
7444;SDS011;3764;48.126;11.594;2022-09-25T07:58:23;6.32;;;5.72;;
7444;SDS011;3764;48.126;11.594;2022-09-25T08:00:51;8.55;;;7.65;;
7444;SDS011;3764;48.126;11.594;2022-09-25T08:03:19;10.30;;;8.00;;
7444;SDS011;3764;48.126;11.594;2022-09-25T08:05:46;7.50;;;6.28;;
7444;SDS011;3764;48.126;11.594;2022-09-25T08:08:13;9.93;;;8.93;;
7444;SDS011;3764;48.126;11.594;2022-09-25T08:10:40;13.13;;;11.05;;
7444;SDS011;3764;48.126;11.594;2022-09-25T08:13:07;9.73;;;8.82;;
7444;SDS011;3764;48.126;11.594;2022-09-25T08:15:34;11.70;;;10.13;;
7444;SDS011;3764;48.126;11.594;2022-09-25T08:18:03;9.85;;;8.85;;
7444;SDS011;3764;48.126;11.594;2022-09-25T08:20:30;26.17;;;10.68;;
7444;SDS011;3764;48.126;11.594;2022-09-25T08:22:57;10.45;;;9.38;;
7444;SDS011;3764;48.126;11.594;2022-09-25T08:25:24;11.13;;;9.98;;
7444;SDS011;3764;48.126;11.594;2022-09-25T08:27:51;12.75;;;11.30;;
7444;SDS011;3764;48.126;11.594;2022-09-25T08:30:18;14.48;;;12.15;;
7444;SDS011;3764;48.126;11.594;2022-09-25T08:32:45;15.68;;;11.75;;
7444;SDS011;3764;48.126;11.594;2022-09-25T08:35:14;15.30;;;12.05;;
7444;SDS011;3764;48.126;11.594;2022-09-25T08:37:41;14.43;;;11.23;;
7444;SDS011;3764;48.126;11.594;2022-09-25T08:40:15;13.52;;;11.73;;
7444;SDS011;3764;48.126;11.594;2022-09-25T08:42:44;13.73;;;11.30;;
7444;SDS011;3764;48.126;11.594;2022-09-25T08:45:19;16.10;;;12.82;;
7444;SDS011;3764;48.126;11.594;2022-09-25T08:48:08;16.60;;;12.88;;
7444;SDS011;3764;48.126;11.594;2022-09-25T08:51:06;14.45;;;11.68;;
7444;SDS011;3764;48.126;11.594;2022-09-25T08:53:35;12.45;;;10.63;;
7444;SDS011;3764;48.126;11.594;2022-09-25T08:56:05;17.63;;;12.90;;
7444;SDS011;3764;48.126;11.594;2022-09-25T08:58:44;14.63;;;12.73;;
7444;SDS011;3764;48.126;11.594;2022-09-25T09:01:16;15.63;;;12.43;;
7444;SDS011;3764;48.126;11.594;2022-09-25T09:03:47;14.73;;;13.05;;
7444;SDS011;3764;48.126;11.594;2022-09-25T09:06:20;13.27;;;11.90;;
7444;SDS011;3764;48.126;11.594;2022-09-25T09:08:52;12.80;;;9.95;;
7444;SDS011;3764;48.126;11.594;2022-09-25T09:11:25;15.95;;;12.48;;
7444;SDS011;3764;48.126;11.594;2022-09-25T09:13:59;15.45;;;11.88;;
7444;SDS011;3764;48.126;11.594;2022-09-25T09:16:30;17.20;;;13.75;;
7444;SDS011;3764;48.126;11.594;2022-09-25T09:19:03;15.35;;;12.75;;
7444;SDS011;3764;48.126;11.594;2022-09-25T09:21:34;13.55;;;12.20;;
7444;SDS011;3764;48.126;11.594;2022-09-25T09:24:07;20.45;;;15.18;;
7444;SDS011;3764;48.126;11.594;2022-09-25T09:26:50;14.98;;;12.60;;
7444;SDS011;3764;48.126;11.594;2022-09-25T09:32:40;16.15;;;13.60;;
7444;SDS011;3764;48.126;11.594;2022-09-25T09:35:23;18.15;;;13.85;;
7444;SDS011;3764;48.126;11.594;2022-09-25T09:38:00;19.30;;;15.02;;
7444;SDS011;3764;48.126;11.594;2022-09-25T09:40:43;19.50;;;15.93;;
7444;SDS011;3764;48.126;11.594;2022-09-25T09:43:25;16.75;;;13.70;;
7444;SDS011;3764;48.126;11.594;2022-09-25T09:46:06;18.40;;;14.75;;
7444;SDS011;3764;48.126;11.594;2022-09-25T09:48:40;14.77;;;12.65;;
7444;SDS011;3764;48.126;11.594;2022-09-25T09:51:14;22.10;;;14.77;;
7444;SDS011;3764;48.126;11.594;2022-09-25T09:53:47;15.02;;;12.43;;
7444;SDS011;3764;48.126;11.594;2022-09-25T09:56:18;17.30;;;14.15;;
7444;SDS011;3764;48.126;11.594;2022-09-25T09:58:49;17.15;;;14.35;;
7444;SDS011;3764;48.126;11.594;2022-09-25T10:01:20;20.10;;;16.42;;
7444;SDS011;3764;48.126;11.594;2022-09-25T10:03:52;20.98;;;15.48;;
7444;SDS011;3764;48.126;11.594;2022-09-25T10:06:27;19.05;;;14.60;;
7444;SDS011;3764;48.126;11.594;2022-09-25T10:08:59;13.38;;;11.88;;
7444;SDS011;3764;48.126;11.594;2022-09-25T10:11:26;19.23;;;13.20;;
7444;SDS011;3764;48.126;11.594;2022-09-25T10:13:56;20.20;;;15.70;;
7444;SDS011;3764;48.126;11.594;2022-09-25T10:16:25;16.83;;;12.95;;
7444;SDS011;3764;48.126;11.594;2022-09-25T10:18:54;14.38;;;12.07;;
7444;SDS011;3764;48.126;11.594;2022-09-25T10:21:27;14.38;;;11.82;;
7444;SDS011;3764;48.126;11.594;2022-09-25T10:23:57;12.95;;;11.10;;
7444;SDS011;3764;48.126;11.594;2022-09-25T10:26:28;15.05;;;12.38;;
7444;SDS011;3764;48.126;11.594;2022-09-25T10:28:56;12.52;;;10.65;;
7444;SDS011;3764;48.126;11.594;2022-09-25T10:31:24;14.23;;;12.73;;
7444;SDS011;3764;48.126;11.594;2022-09-25T10:33:58;13.15;;;10.73;;
7444;SDS011;3764;48.126;11.594;2022-09-25T10:36:31;15.98;;;13.73;;
7444;SDS011;3764;48.126;11.594;2022-09-25T10:39:18;14.43;;;12.93;;
7444;SDS011;3764;48.126;11.594;2022-09-25T10:41:51;13.82;;;12.25;;
7444;SDS011;3764;48.126;11.594;2022-09-25T10:44:20;12.18;;;10.95;;
7444;SDS011;3764;48.126;11.594;2022-09-25T10:46:49;12.80;;;11.02;;
7444;SDS011;3764;48.126;11.594;2022-09-25T10:49:43;13.13;;;11.73;;
7444;SDS011;3764;48.126;11.594;2022-09-25T10:52:44;13.52;;;11.98;;
7444;SDS011;3764;48.126;11.594;2022-09-25T10:55:20;13.73;;;12.13;;
7444;SDS011;3764;48.126;11.594;2022-09-25T10:58:04;12.30;;;10.80;;
7444;SDS011;3764;48.126;11.594;2022-09-25T11:00:39;11.00;;;9.90;;
7444;SDS011;3764;48.126;11.594;2022-09-25T11:03:12;10.10;;;9.00;;
7444;SDS011;3764;48.126;11.594;2022-09-25T11:05:47;8.70;;;7.70;;
7444;SDS011;3764;48.126;11.594;2022-09-25T11:08:17;9.15;;;7.65;;
7444;SDS011;3764;48.126;11.594;2022-09-25T11:10:50;12.35;;;10.88;;
7444;SDS011;3764;48.126;11.594;2022-09-25T11:13:21;9.73;;;8.68;;
7444;SDS011;3764;48.126;11.594;2022-09-25T11:15:52;11.85;;;10.05;;
7444;SDS011;3764;48.126;11.594;2022-09-25T11:18:33;11.50;;;9.25;;
7444;SDS011;3764;48.126;11.594;2022-09-25T11:21:04;11.73;;;10.00;;
7444;SDS011;3764;48.126;11.594;2022-09-25T11:23:35;11.95;;;10.63;;
7444;SDS011;3764;48.126;11.594;2022-09-25T11:26:11;12.45;;;10.18;;
7444;SDS011;3764;48.126;11.594;2022-09-25T11:28:43;13.60;;;11.00;;
7444;SDS011;3764;48.126;11.594;2022-09-25T11:31:16;11.63;;;10.07;;
7444;SDS011;3764;48.126;11.594;2022-09-25T11:36:23;11.20;;;10.10;;
7444;SDS011;3764;48.126;11.594;2022-09-25T11:38:55;10.77;;;9.68;;
7444;SDS011;3764;48.126;11.594;2022-09-25T11:41:46;11.10;;;10.00;;
7444;SDS011;3764;48.126;11.594;2022-09-25T11:44:20;10.80;;;9.70;;
7444;SDS011;3764;48.126;11.594;2022-09-25T11:46:55;11.10;;;9.27;;
7444;SDS011;3764;48.126;11.594;2022-09-25T11:49:29;9.75;;;8.85;;
7444;SDS011;3764;48.126;11.594;2022-09-25T11:55:08;9.10;;;8.30;;
7444;SDS011;3764;48.126;11.594;2022-09-25T11:57:52;9.95;;;8.95;;
7444;SDS011;3764;48.126;11.594;2022-09-25T12:00:27;9.10;;;8.18;;
7444;SDS011;3764;48.126;11.594;2022-09-25T12:03:08;10.18;;;9.15;;
7444;SDS011;3764;48.126;11.594;2022-09-25T12:05:52;11.90;;;10.13;;
7444;SDS011;3764;48.126;11.594;2022-09-25T12:08:40;9.35;;;8.30;;
7444;SDS011;3764;48.126;11.594;2022-09-25T12:11:22;8.57;;;7.68;;
7444;SDS011;3764;48.126;11.594;2022-09-25T12:13:54;8.30;;;7.32;;
7444;SDS011;3764;48.126;11.594;2022-09-25T12:16:31;8.77;;;7.88;;
7444;SDS011;3764;48.126;11.594;2022-09-25T12:19:06;8.65;;;7.75;;
7444;SDS011;3764;48.126;11.594;2022-09-25T12:21:42;8.65;;;7.55;;
7444;SDS011;3764;48.126;11.594;2022-09-25T12:24:17;9.75;;;8.05;;
7444;SDS011;3764;48.126;11.594;2022-09-25T12:26:56;9.40;;;8.38;;
7444;SDS011;3764;48.126;11.594;2022-09-25T12:29:33;9.82;;;8.25;;
7444;SDS011;3764;48.126;11.594;2022-09-25T12:32:13;9.68;;;7.75;;
7444;SDS011;3764;48.126;11.594;2022-09-25T12:34:53;9.60;;;8.60;;
7444;SDS011;3764;48.126;11.594;2022-09-25T12:37:31;11.98;;;9.80;;
7444;SDS011;3764;48.126;11.594;2022-09-25T12:40:10;13.23;;;9.95;;
7444;SDS011;3764;48.126;11.594;2022-09-25T12:42:42;12.40;;;8.77;;
7444;SDS011;3764;48.126;11.594;2022-09-25T12:45:18;9.90;;;8.70;;
7444;SDS011;3764;48.126;11.594;2022-09-25T12:47:57;12.30;;;9.32;;
7444;SDS011;3764;48.126;11.594;2022-09-25T12:50:33;12.30;;;10.27;;
7444;SDS011;3764;48.126;11.594;2022-09-25T12:53:19;12.23;;;10.05;;
7444;SDS011;3764;48.126;11.594;2022-09-25T12:55:53;13.20;;;11.30;;
7444;SDS011;3764;48.126;11.594;2022-09-25T12:58:36;11.07;;;9.88;;
7444;SDS011;3764;48.126;11.594;2022-09-25T13:01:12;12.60;;;10.05;;
7444;SDS011;3764;48.126;11.594;2022-09-25T13:03:46;9.98;;;8.98;;
7444;SDS011;3764;48.126;11.594;2022-09-25T13:06:16;11.23;;;8.55;;
7444;SDS011;3764;48.126;11.594;2022-09-25T13:08:49;11.68;;;9.52;;
7444;SDS011;3764;48.126;11.594;2022-09-25T13:11:24;10.07;;;8.18;;
7444;SDS011;3764;48.126;11.594;2022-09-25T13:14:00;9.43;;;8.40;;
7444;SDS011;3764;48.126;11.594;2022-09-25T13:16:29;9.88;;;7.72;;
7444;SDS011;3764;48.126;11.594;2022-09-25T13:19:10;11.48;;;9.65;;
7444;SDS011;3764;48.126;11.594;2022-09-25T13:21:38;12.38;;;9.45;;
7444;SDS011;3764;48.126;11.594;2022-09-25T13:24:08;11.63;;;9.63;;
7444;SDS011;3764;48.126;11.594;2022-09-25T13:26:42;11.60;;;10.15;;
7444;SDS011;3764;48.126;11.594;2022-09-25T13:29:19;10.75;;;9.15;;
7444;SDS011;3764;48.126;11.594;2022-09-25T13:31:50;11.45;;;9.52;;
7444;SDS011;3764;48.126;11.594;2022-09-25T13:34:27;13.63;;;10.35;;
7444;SDS011;3764;48.126;11.594;2022-09-25T13:36:58;12.70;;;9.88;;
7444;SDS011;3764;48.126;11.594;2022-09-25T13:39:31;11.55;;;9.77;;
7444;SDS011;3764;48.126;11.594;2022-09-25T13:42:23;12.52;;;9.73;;
7444;SDS011;3764;48.126;11.594;2022-09-25T13:45:04;11.00;;;9.88;;
7444;SDS011;3764;48.126;11.594;2022-09-25T13:47:57;12.43;;;10.05;;
7444;SDS011;3764;48.126;11.594;2022-09-25T13:50:33;11.23;;;9.23;;
7444;SDS011;3764;48.126;11.594;2022-09-25T14:01:52;14.98;;;10.25;;
7444;SDS011;3764;48.126;11.594;2022-09-25T14:04:33;12.45;;;10.52;;
7444;SDS011;3764;48.126;11.594;2022-09-25T14:07:04;13.05;;;9.52;;
7444;SDS011;3764;48.126;11.594;2022-09-25T14:09:37;10.43;;;8.85;;
7444;SDS011;3764;48.126;11.594;2022-09-25T14:12:12;12.23;;;10.43;;
7444;SDS011;3764;48.126;11.594;2022-09-25T14:14:46;15.00;;;11.70;;
7444;SDS011;3764;48.126;11.594;2022-09-25T14:17:20;13.43;;;11.75;;
7444;SDS011;3764;48.126;11.594;2022-09-25T14:19:51;15.38;;;10.98;;
7444;SDS011;3764;48.126;11.594;2022-09-25T14:22:24;12.77;;;11.07;;
7444;SDS011;3764;48.126;11.594;2022-09-25T14:27:58;14.70;;;10.63;;
7444;SDS011;3764;48.126;11.594;2022-09-25T14:30:26;15.43;;;11.65;;
7444;SDS011;3764;48.126;11.594;2022-09-25T14:33:07;12.73;;;11.00;;
7444;SDS011;3764;48.126;11.594;2022-09-25T14:35:49;12.60;;;10.15;;
7444;SDS011;3764;48.126;11.594;2022-09-25T14:38:37;12.27;;;9.50;;
7444;SDS011;3764;48.126;11.594;2022-09-25T14:41:25;14.13;;;10.90;;
7444;SDS011;3764;48.126;11.594;2022-09-25T14:44:15;11.30;;;9.98;;
7444;SDS011;3764;48.126;11.594;2022-09-25T14:47:06;18.58;;;13.00;;
7444;SDS011;3764;48.126;11.594;2022-09-25T14:49:37;13.18;;;11.27;;
7444;SDS011;3764;48.126;11.594;2022-09-25T14:52:08;14.30;;;11.07;;
7444;SDS011;3764;48.126;11.594;2022-09-25T14:54:39;13.65;;;10.85;;
7444;SDS011;3764;48.126;11.594;2022-09-25T14:57:13;14.98;;;11.38;;
7444;SDS011;3764;48.126;11.594;2022-09-25T14:59:43;12.88;;;10.32;;
7444;SDS011;3764;48.126;11.594;2022-09-25T15:02:14;15.77;;;12.93;;
7444;SDS011;3764;48.126;11.594;2022-09-25T15:04:44;14.85;;;12.30;;
7444;SDS011;3764;48.126;11.594;2022-09-25T15:07:16;14.75;;;11.80;;
7444;SDS011;3764;48.126;11.594;2022-09-25T15:09:45;13.50;;;11.43;;
7444;SDS011;3764;48.126;11.594;2022-09-25T15:12:15;15.68;;;10.38;;
7444;SDS011;3764;48.126;11.594;2022-09-25T15:14:57;12.30;;;10.43;;
7444;SDS011;3764;48.126;11.594;2022-09-25T15:17:30;16.33;;;11.98;;
7444;SDS011;3764;48.126;11.594;2022-09-25T15:19:58;14.18;;;10.55;;
7444;SDS011;3764;48.126;11.594;2022-09-25T15:22:32;14.27;;;12.15;;
7444;SDS011;3764;48.126;11.594;2022-09-25T15:25:04;12.23;;;10.00;;
7444;SDS011;3764;48.126;11.594;2022-09-25T15:27:33;12.57;;;10.57;;
7444;SDS011;3764;48.126;11.594;2022-09-25T15:30:12;15.93;;;11.23;;
7444;SDS011;3764;48.126;11.594;2022-09-25T15:32:41;12.77;;;9.55;;
7444;SDS011;3764;48.126;11.594;2022-09-25T15:35:16;13.18;;;11.40;;
7444;SDS011;3764;48.126;11.594;2022-09-25T15:37:45;13.77;;;10.48;;